KTBN/TBN METAR and TAF weather

Enter ICAO airport designator
Station Type Date Time Source
KTBN METAR 2019/10/23 07:56 UTC NOAA

KTBN 230756Z AUTO 18007KT 10SM CLR 07/01 A3000 RMK AO2 SLP162 T00720008


Station Type Date Time Source
KTBN Decoded METAR 2019/10/23 07:56 UTC NOAA

Fort Leonard Wood, MO, United States (KTBN) 37-44N 092-08W
Oct 23, 2019 - 03:56 AM EDT / 2019.10.23 0756 UTC
Wind: from the S (180 degrees) at 8 MPH (7 KT):0
Visibility: 10 mile(s):0
Sky conditions: clear
Temperature: 45.0 F (7.2 C)
Dew Point: 33.4 F (0.8 C)
Relative Humidity: 63%
Pressure (altimeter): 30 in. Hg (1015 hPa)
ob: KTBN 230756Z AUTO 18007KT 10SM CLR 07/01 A3000 RMK AO2 SLP162 T00720008
cycle: 8

Station Type Date Time Source
KTBN TAF UTC NOAA

Error!

Example: see airport list